Time;durP1;ratioP1;P1;durP2;ratioP2;P2;SDS_P1;SDS_P2;PMS_P1;PMS_P2;Temp;Humidity;BMP_temperature;BMP_pressure;BME280_temperature;BME280_humidity;BME280_pressure;Samples;Min_cycle;Max_cycle;Signal;HPM_P1;HPM_P2
2021/12/04 00:01:30;;;;;;;6.00;5.40;;;-0.40;99.90;;;;;;5114381;28;20211;-87
2021/12/04 00:03:59;;;;;;;6.17;5.23;;;-0.40;99.90;;;;;;5114634;28;20283;-87
2021/12/04 00:06:31;;;;;;;5.77;5.13;;;-0.40;99.90;;;;;;5114356;28;20211;-87
2021/12/04 00:09:04;;;;;;;8.23;6.07;;;-0.40;99.90;;;;;;5113547;28;20238;-87
2021/12/04 00:11:35;;;;;;;5.13;4.63;;;-0.40;99.90;;;;;;5112343;28;20256;-87
2021/12/04 00:14:03;;;;;;;5.53;5.03;;;-0.40;99.90;;;;;;5114197;28;20199;-87
2021/12/04 00:16:33;;;;;;;7.93;5.50;;;-0.40;99.90;;;;;;5114128;28;20291;-86
2021/12/04 00:19:02;;;;;;;5.80;5.00;;;-0.40;99.90;;;;;;5113217;28;20204;-87
2021/12/04 00:21:30;;;;;;;5.10;4.63;;;-0.40;99.90;;;;;;5113746;28;20217;-87
2021/12/04 00:23:58;;;;;;;4.73;4.33;;;-0.40;99.90;;;;;;5113862;28;20249;-87
2021/12/04 00:26:27;;;;;;;4.37;3.73;;;-0.40;99.90;;;;;;5113871;28;20230;-87
2021/12/04 00:28:55;;;;;;;8.80;4.87;;;-0.40;99.90;;;;;;5113339;28;20300;-87
2021/12/04 00:31:23;;;;;;;7.13;4.43;;;-0.40;99.90;;;;;;5113224;28;20239;-87
2021/12/04 00:33:54;;;;;;;4.80;4.20;;;-0.40;99.90;;;;;;5113689;28;20203;-87
2021/12/04 00:36:29;;;;;;;13.03;5.33;;;-0.40;99.90;;;;;;5113191;28;20238;-87
2021/12/04 00:50:03;;;;;;;3.57;3.27;;;-0.40;99.90;;;;;;5112699;28;20231;-87
2021/12/04 00:52:31;;;;;;;7.80;3.53;;;-0.40;99.90;;;;;;5113335;28;20246;-87
2021/12/04 00:55:01;;;;;;;3.50;3.13;;;-0.40;99.90;;;;;;5113459;28;20204;-87
2021/12/04 00:57:29;;;;;;;4.50;4.03;;;-0.50;99.90;;;;;;5113021;28;20227;-87
2021/12/04 00:59:58;;;;;;;4.20;3.80;;;-0.50;99.90;;;;;;5112787;28;20223;-87
2021/12/04 01:02:26;;;;;;;3.13;2.80;;;-0.50;99.90;;;;;;5113224;28;20204;-87
2021/12/04 01:04:55;;;;;;;4.60;4.13;;;-0.60;99.90;;;;;;5113071;28;20299;-87
2021/12/04 01:07:25;;;;;;;3.77;3.20;;;-0.60;99.90;;;;;;5112809;28;20219;-87
2021/12/04 01:09:54;;;;;;;3.13;2.83;;;-0.70;99.90;;;;;;5112788;28;20212;-87
2021/12/04 01:12:23;;;;;;;3.03;2.73;;;-0.70;99.90;;;;;;5113223;28;20279;-87
2021/12/04 01:14:51;;;;;;;4.40;3.20;;;-0.70;99.90;;;;;;5112910;28;20207;-87
2021/12/04 01:17:19;;;;;;;6.30;3.77;;;-0.80;99.90;;;;;;5113048;28;20315;-87
2021/12/04 01:19:48;;;;;;;4.20;3.80;;;-0.90;99.90;;;;;;5112647;28;20247;-87
2021/12/04 01:22:20;;;;;;;3.93;3.47;;;-0.90;99.90;;;;;;5113171;28;20212;-87
2021/12/04 01:24:49;;;;;;;4.47;3.37;;;-0.90;99.90;;;;;;5112962;28;20235;-87
2021/12/04 01:27:18;;;;;;;4.10;3.40;;;-0.90;99.90;;;;;;5112797;28;20306;-87
2021/12/04 01:29:46;;;;;;;3.80;3.40;;;-0.90;99.90;;;;;;5112375;28;20199;-87
2021/12/04 01:32:15;;;;;;;3.60;3.17;;;-0.90;99.90;;;;;;5113063;28;20271;-87
2021/12/04 01:34:43;;;;;;;4.57;3.73;;;-1.00;99.90;;;;;;5112231;28;20344;-86
2021/12/04 01:37:11;;;;;;;3.23;2.93;;;-1.00;99.90;;;;;;5112733;28;20318;-87
2021/12/04 01:39:40;;;;;;;3.07;2.87;;;-1.10;99.90;;;;;;5112291;28;20199;-87
2021/12/04 01:42:10;;;;;;;2.87;2.67;;;-1.00;99.90;;;;;;5112508;28;20231;-87
2021/12/04 01:44:38;;;;;;;2.97;2.77;;;-1.00;99.90;;;;;;5112814;28;20203;-87
2021/12/04 01:47:15;;;;;;;4.20;3.20;;;-1.00;99.90;;;;;;5112816;28;20276;-87
2021/12/04 01:49:43;;;;;;;3.37;2.77;;;-1.00;99.90;;;;;;5115681;28;20226;-86
2021/12/04 01:52:12;;;;;;;6.13;3.40;;;-0.90;99.90;;;;;;5116708;28;20322;-87
2021/12/04 01:54:40;;;;;;;2.60;2.40;;;-0.90;99.90;;;;;;5116838;28;20203;-86
2021/12/04 01:57:13;;;;;;;2.57;2.37;;;-0.90;99.90;;;;;;5117201;28;20219;-86
2021/12/04 01:59:41;;;;;;;7.53;2.20;;;-0.80;99.90;;;;;;5116761;28;20242;-87
2021/12/04 02:02:09;;;;;;;2.80;2.47;;;-0.80;99.90;;;;;;5116766;28;20204;-87
2021/12/04 02:04:38;;;;;;;2.47;2.27;;;-0.80;99.90;;;;;;5116268;28;20211;-88
2021/12/04 02:07:08;;;;;;;2.43;2.17;;;-0.80;99.90;;;;;;5116462;28;20227;-89
2021/12/04 02:09:37;;;;;;;2.47;2.27;;;-0.90;99.90;;;;;;5116113;28;20203;-89
2021/12/04 02:12:07;;;;;;;2.90;2.47;;;-0.90;99.90;;;;;;5115316;28;20295;-89
2021/12/04 02:14:40;;;;;;;3.33;2.47;;;-1.00;99.90;;;;;;5116329;28;20235;-88
2021/12/04 02:17:09;;;;;;;2.80;2.50;;;-1.00;99.90;;;;;;5115932;28;20253;-89
2021/12/04 02:19:39;;;;;;;2.37;2.00;;;-1.00;99.90;;;;;;5116070;28;20210;-89
2021/12/04 02:22:09;;;;;;;3.10;2.90;;;-1.00;99.90;;;;;;5116504;28;20199;-89
2021/12/04 02:24:38;;;;;;;2.63;2.43;;;-1.00;99.90;;;;;;5116320;28;20200;-88
2021/12/04 02:27:06;;;;;;;2.87;2.20;;;-1.00;99.90;;;;;;5116192;28;20251;-88
2021/12/04 02:29:34;;;;;;;2.53;2.20;;;-1.00;99.90;;;;;;5115262;28;20234;-89
2021/12/04 02:32:04;;;;;;;3.77;2.97;;;-0.90;99.90;;;;;;5115760;28;20216;-89
2021/12/04 02:34:33;;;;;;;3.87;3.30;;;-1.00;99.90;;;;;;5116201;28;20234;-89
2021/12/04 02:37:01;;;;;;;3.30;2.33;;;-1.00;99.90;;;;;;5115930;28;20246;-89
2021/12/04 02:39:35;;;;;;;3.10;2.83;;;-1.00;99.90;;;;;;5115484;28;20204;-86
2021/12/04 02:42:06;;;;;;;7.30;2.90;;;-1.00;99.90;;;;;;5116217;28;20215;-87
2021/12/04 02:44:37;;;;;;;2.67;2.20;;;-1.00;99.90;;;;;;5115992;28;20204;-87
2021/12/04 02:47:06;;;;;;;3.40;2.27;;;-1.10;99.90;;;;;;5115568;28;20302;-87
2021/12/04 02:49:35;;;;;;;2.00;1.90;;;-1.00;99.90;;;;;;5115186;28;20212;-86
2021/12/04 02:52:04;;;;;;;1.77;1.67;;;-1.00;99.90;;;;;;5115785;28;20310;-87
2021/12/04 02:54:35;;;;;;;2.00;1.80;;;-1.00;99.90;;;;;;5115353;28;20219;-87
2021/12/04 02:57:05;;;;;;;4.37;2.30;;;-1.00;99.90;;;;;;5115378;28;20246;-86
2021/12/04 02:59:35;;;;;;;2.10;2.00;;;-1.00;99.90;;;;;;5114699;28;20204;-87
2021/12/04 03:02:05;;;;;;;2.77;2.40;;;-1.00;99.90;;;;;;5116017;28;20200;-86
2021/12/04 03:04:34;;;;;;;2.90;2.17;;;-0.90;99.90;;;;;;5115339;28;20207;-86
2021/12/04 03:07:02;;;;;;;4.17;2.27;;;-0.90;99.90;;;;;;5115298;28;20243;-86
2021/12/04 03:09:31;;;;;;;1.77;1.67;;;-1.00;99.90;;;;;;5114757;28;20208;-86
2021/12/04 03:12:04;;;;;;;4.73;2.23;;;-0.90;99.90;;;;;;5114200;28;20223;-86
2021/12/04 03:14:33;;;;;;;1.93;1.83;;;-0.90;99.90;;;;;;5115255;28;20203;-87
2021/12/04 03:17:02;;;;;;;2.10;1.97;;;-1.00;99.90;;;;;;5115351;28;20273;-86
2021/12/04 03:19:30;;;;;;;2.50;1.83;;;-0.90;99.90;;;;;;5114676;28;20227;-86
2021/12/04 03:21:59;;;;;;;2.43;2.17;;;-0.90;99.90;;;;;;5115047;28;20242;-86
2021/12/04 03:24:27;;;;;;;2.07;1.67;;;-0.90;99.90;;;;;;5114732;28;20204;-86
2021/12/04 03:26:56;;;;;;;1.90;1.80;;;-0.90;99.90;;;;;;5114843;28;20266;-87
2021/12/04 03:29:28;;;;;;;2.20;1.97;;;-0.90;99.90;;;;;;5114542;28;20302;-86
2021/12/04 03:40:50;;;;;;;3.53;2.40;;;-0.80;99.90;;;;;;5092499;28;20282;-86
2021/12/04 03:43:18;;;;;;;1.93;1.83;;;-0.80;99.90;;;;;;5114189;28;20204;-86
2021/12/04 03:45:53;;;;;;;2.20;2.00;;;-0.80;99.90;;;;;;5114623;28;20272;-86
2021/12/04 03:51:23;;;;;;;1.63;1.53;;;-0.70;99.90;;;;;;5051988;28;20253;-86
2021/12/04 03:53:51;;;;;;;1.60;1.50;;;-0.70;99.90;;;;;;5051840;28;20206;-86
2021/12/04 03:56:24;;;;;;;1.83;1.73;;;-0.70;99.90;;;;;;5080536;28;20212;-86
2021/12/04 03:58:52;;;;;;;1.77;1.67;;;-0.70;99.90;;;;;;5113751;28;20223;-86
2021/12/04 04:01:22;;;;;;;2.10;1.93;;;-0.70;99.90;;;;;;5114957;28;20196;-86
2021/12/04 04:03:51;;;;;;;1.60;1.50;;;-0.70;99.90;;;;;;5114488;28;20291;-86
2021/12/04 04:06:19;;;;;;;1.80;1.70;;;-0.70;99.90;;;;;;5114425;28;20276;-86
2021/12/04 04:08:48;;;;;;;1.90;1.80;;;-0.60;99.90;;;;;;5114068;28;20227;-86
2021/12/04 04:11:16;;;;;;;2.03;1.63;;;-0.70;99.90;;;;;;5113216;28;20234;-86
2021/12/04 04:13:45;;;;;;;1.53;1.43;;;-0.70;99.90;;;;;;5114128;28;20203;-86
2021/12/04 04:16:14;;;;;;;1.50;1.40;;;-0.70;99.90;;;;;;5113889;28;20235;-86
2021/12/04 04:18:45;;;;;;;2.63;1.93;;;-0.70;99.90;;;;;;5113442;28;20254;-86
2021/12/04 04:21:13;;;;;;;2.57;1.67;;;-0.70;99.90;;;;;;5114063;28;20222;-86
2021/12/04 04:23:41;;;;;;;1.77;1.67;;;-0.70;99.90;;;;;;5113656;28;20271;-86
2021/12/04 04:26:10;;;;;;;1.50;1.43;;;-0.70;99.90;;;;;;5113983;28;20199;-86
2021/12/04 04:28:38;;;;;;;1.67;1.53;;;-0.60;99.90;;;;;;5113556;28;20244;-86
2021/12/04 04:31:08;;;;;;;2.43;2.07;;;-0.60;99.90;;;;;;5113707;28;20279;-85
2021/12/04 04:33:40;;;;;;;1.47;1.37;;;-0.60;99.90;;;;;;5113556;28;20219;-85
2021/12/04 04:36:21;;;;;;;1.60;1.50;;;-0.60;99.90;;;;;;5113601;28;20261;-86
2021/12/04 04:39:02;;;;;;;3.13;2.27;;;-0.60;99.90;;;;;;5113278;28;20390;-86
2021/12/04 04:58:17;;;;;;;2.20;2.00;;;-0.70;99.90;;;;;;5113472;28;20279;-86
2021/12/04 05:11:59;;;;;;;2.20;2.00;;;-0.70;99.90;;;;;;5112168;28;20291;-86
2021/12/04 05:14:27;;;;;;;2.00;1.80;;;-0.70;99.90;;;;;;5113101;28;20250;-86
2021/12/04 05:17:03;;;;;;;4.17;1.90;;;-0.60;99.90;;;;;;5113246;28;20310;-86
2021/12/04 05:19:39;;;;;;;2.40;2.20;;;-0.70;99.90;;;;;;5112860;28;20207;-86
2021/12/04 05:22:09;;;;;;;2.50;1.77;;;-0.70;99.90;;;;;;5112652;28;20230;-86
2021/12/04 05:24:39;;;;;;;1.70;1.60;;;-0.70;99.90;;;;;;5112811;28;20358;-86
2021/12/04 05:27:09;;;;;;;2.27;2.07;;;-0.60;99.90;;;;;;5112493;28;20310;-86
2021/12/04 05:29:41;;;;;;;2.40;2.20;;;-0.60;99.90;;;;;;5112341;28;20233;-86
2021/12/04 05:32:11;;;;;;;1.80;1.70;;;-0.60;99.90;;;;;;5113149;28;20277;-86
2021/12/04 05:34:40;;;;;;;2.50;2.30;;;-0.50;99.90;;;;;;5112653;28;20203;-86
2021/12/04 05:37:08;;;;;;;2.60;2.00;;;-0.50;99.90;;;;;;5113004;28;20231;-86
2021/12/04 05:39:38;;;;;;;2.00;1.90;;;-0.50;99.90;;;;;;5112284;28;20303;-86
2021/12/04 05:42:07;;;;;;;1.80;1.70;;;-0.50;99.90;;;;;;5112902;28;20286;-86
2021/12/04 05:44:35;;;;;;;2.27;2.03;;;-0.40;99.90;;;;;;5112816;28;20203;-86
2021/12/04 05:47:13;;;;;;;2.33;2.13;;;-0.40;99.90;;;;;;5112661;28;20255;-86
2021/12/04 05:49:52;;;;;;;1.90;1.73;;;-0.40;99.90;;;;;;5112349;28;20223;-86
2021/12/04 05:52:35;;;;;;;2.13;2.03;;;-0.30;99.90;;;;;;5112572;28;20310;-86
2021/12/04 05:55:13;;;;;;;2.83;2.33;;;-0.40;99.90;;;;;;5112756;28;20286;-86
2021/12/04 05:57:41;;;;;;;2.73;2.20;;;-0.30;99.90;;;;;;5112714;28;20232;-86
2021/12/04 06:00:14;;;;;;;2.37;2.07;;;-0.20;99.90;;;;;;5112144;28;20328;-86
2021/12/04 06:02:42;;;;;;;2.00;1.80;;;-0.30;99.90;;;;;;5112612;28;20284;-86
2021/12/04 06:05:11;;;;;;;2.23;2.03;;;-0.30;99.90;;;;;;5112904;28;20208;-86
2021/12/04 06:07:40;;;;;;;2.00;1.90;;;-0.20;99.90;;;;;;5112562;28;20224;-86
2021/12/04 06:10:11;;;;;;;2.47;1.93;;;-0.20;99.90;;;;;;5112013;28;20234;-86
2021/12/04 06:12:39;;;;;;;2.60;2.27;;;-0.20;99.90;;;;;;5111886;28;20248;-86
2021/12/04 06:15:09;;;;;;;9.13;2.23;;;-0.20;99.90;;;;;;5112404;28;20241;-86
2021/12/04 06:17:37;;;;;;;4.07;3.37;;;-0.10;99.90;;;;;;5112152;28;20279;-86
2021/12/04 06:22:53;;;;;;;1.80;1.70;;;-0.10;99.90;;;;;;5112744;28;20200;-86
2021/12/04 06:25:25;;;;;;;2.40;2.20;;;0.00;99.90;;;;;;5112915;28;20239;-86
2021/12/04 06:27:54;;;;;;;2.53;2.33;;;0.00;99.90;;;;;;5112398;28;20223;-86
2021/12/04 06:30:23;;;;;;;8.13;2.83;;;0.10;99.90;;;;;;5111484;28;20259;-86
2021/12/04 06:32:53;;;;;;;3.93;2.93;;;0.10;99.90;;;;;;5112029;28;20258;-86
2021/12/04 06:35:24;;;;;;;2.67;2.47;;;0.10;99.90;;;;;;5115095;28;20235;-86
2021/12/04 06:37:53;;;;;;;3.53;2.50;;;0.10;99.90;;;;;;5116002;28;20226;-86
2021/12/04 06:40:26;;;;;;;2.80;2.50;;;0.20;99.90;;;;;;5115019;28;20252;-86
2021/12/04 06:42:55;;;;;;;1.87;1.77;;;0.20;99.90;;;;;;5115728;28;20257;-86
2021/12/04 06:45:24;;;;;;;2.13;1.93;;;0.20;99.90;;;;;;5115545;28;20231;-86
2021/12/04 06:47:56;;;;;;;2.30;2.10;;;0.20;99.90;;;;;;5115732;28;20243;-86
2021/12/04 06:50:33;;;;;;;3.03;2.43;;;0.20;99.90;;;;;;5115753;28;20212;-86
2021/12/04 06:53:07;;;;;;;3.80;2.90;;;0.20;99.90;;;;;;5115976;28;20306;-86
2021/12/04 06:55:41;;;;;;;2.93;2.63;;;0.30;99.90;;;;;;5116083;28;20203;-86
2021/12/04 06:58:10;;;;;;;2.60;2.40;;;0.30;99.90;;;;;;5115494;28;20228;-86
2021/12/04 07:00:39;;;;;;;2.93;2.73;;;0.30;99.90;;;;;;5115117;28;20249;-86
2021/12/04 07:03:07;;;;;;;3.67;2.53;;;0.30;99.90;;;;;;5115574;28;20203;-86
2021/12/04 07:05:36;;;;;;;2.43;2.23;;;0.30;99.90;;;;;;5115717;28;20211;-86
2021/12/04 07:08:06;;;;;;;2.30;2.10;;;0.40;99.90;;;;;;5115313;28;20306;-86
2021/12/04 07:10:34;;;;;;;3.73;2.50;;;0.40;99.90;;;;;;5114892;28;20203;-86
2021/12/04 07:13:05;;;;;;;3.03;2.37;;;0.50;99.90;;;;;;5115399;28;20243;-86
2021/12/04 07:15:34;;;;;;;4.40;2.50;;;0.50;99.90;;;;;;5115384;28;20291;-86
2021/12/04 07:18:04;;;;;;;3.70;3.10;;;0.50;99.90;;;;;;5115434;28;20231;-86
2021/12/04 07:20:33;;;;;;;2.90;2.57;;;0.50;99.90;;;;;;5114908;28;20291;-86
2021/12/04 07:23:01;;;;;;;2.93;2.30;;;0.50;99.90;;;;;;5114869;28;20219;-86
2021/12/04 07:25:30;;;;;;;2.83;2.13;;;0.50;99.90;;;;;;5114860;28;20261;-86
2021/12/04 07:27:59;;;;;;;2.47;2.27;;;0.60;99.90;;;;;;5114489;28;20249;-86
2021/12/04 07:30:29;;;;;;;3.07;2.53;;;0.60;99.90;;;;;;5114868;28;20203;-86
2021/12/04 07:32:58;;;;;;;4.03;3.70;;;0.60;99.90;;;;;;5114853;28;20207;-86
2021/12/04 07:35:26;;;;;;;5.83;2.90;;;0.70;99.90;;;;;;5114896;28;20267;-86
2021/12/04 07:37:54;;;;;;;3.30;3.00;;;0.70;99.90;;;;;;5114541;28;20227;-87
2021/12/04 07:40:24;;;;;;;3.27;2.80;;;0.70;99.90;;;;;;5114122;28;20353;-87
2021/12/04 07:42:52;;;;;;;4.00;3.27;;;0.80;99.90;;;;;;5114526;28;20250;-87
2021/12/04 07:45:21;;;;;;;4.27;3.20;;;0.80;99.90;;;;;;5114544;28;20239;-87
2021/12/04 07:47:51;;;;;;;5.20;4.40;;;0.80;99.90;;;;;;5114498;28;20258;-87
2021/12/04 07:50:19;;;;;;;7.50;5.47;;;0.90;99.90;;;;;;5114337;28;20288;-87
2021/12/04 07:52:49;;;;;;;7.90;5.60;;;0.90;99.90;;;;;;5114363;28;20291;-87
2021/12/04 07:55:17;;;;;;;4.43;4.00;;;0.90;99.90;;;;;;5113994;28;20223;-87
2021/12/04 07:57:46;;;;;;;6.73;4.77;;;1.00;99.90;;;;;;5114369;28;20244;-87
2021/12/04 08:00:17;;;;;;;4.17;3.30;;;1.00;99.90;;;;;;5114020;28;20222;-87
2021/12/04 08:02:47;;;;;;;5.70;4.13;;;1.10;99.90;;;;;;5113993;28;20482;-86
2021/12/04 08:05:19;;;;;;;4.67;3.70;;;1.10;99.90;;;;;;5114552;28;20196;-86
2021/12/04 08:07:48;;;;;;;3.40;3.10;;;1.10;99.90;;;;;;5113982;28;20250;-86
2021/12/04 08:10:19;;;;;;;3.30;3.00;;;1.10;99.90;;;;;;5113445;28;20230;-86
2021/12/04 08:12:47;;;;;;;4.67;3.30;;;1.20;99.90;;;;;;5113295;28;20303;-86
2021/12/04 08:15:17;;;;;;;3.80;3.13;;;1.20;99.90;;;;;;5113502;28;20303;-85
2021/12/04 08:17:46;;;;;;;6.50;4.27;;;1.20;99.90;;;;;;5114409;28;20215;-86
2021/12/04 08:20:17;;;;;;;4.70;4.23;;;1.20;99.90;;;;;;5113662;28;20215;-86
2021/12/04 08:22:46;;;;;;;3.90;3.60;;;1.30;99.90;;;;;;5114266;28;20245;-86
2021/12/04 08:25:18;;;;;;;4.00;3.60;;;1.30;99.90;;;;;;5114173;28;20203;-86
2021/12/04 08:27:47;;;;;;;3.63;3.33;;;1.40;99.90;;;;;;5113796;28;20313;-86
2021/12/04 08:30:18;;;;;;;5.67;3.40;;;1.40;99.90;;;;;;5113695;28;20283;-86
2021/12/04 08:32:47;;;;;;;3.20;2.90;;;1.50;99.90;;;;;;5114046;28;20227;-86
2021/12/04 08:35:18;;;;;;;4.53;3.73;;;1.60;99.90;;;;;;5113427;28;20250;-86
2021/12/04 08:37:47;;;;;;;5.17;4.30;;;1.60;99.90;;;;;;5113551;28;20241;-86
2021/12/04 08:40:17;;;;;;;3.53;3.23;;;1.60;99.90;;;;;;5113087;28;20345;-86
2021/12/04 08:42:48;;;;;;;4.07;3.67;;;1.70;99.90;;;;;;5113760;28;20203;-86
2021/12/04 08:45:18;;;;;;;6.07;4.00;;;1.70;99.90;;;;;;5113458;28;20208;-86
2021/12/04 08:47:46;;;;;;;3.03;2.83;;;1.70;99.90;;;;;;5113288;28;20261;-86
2021/12/04 08:50:17;;;;;;;3.50;3.20;;;1.70;99.90;;;;;;5113130;28;20223;-87
2021/12/04 08:52:47;;;;;;;2.80;2.60;;;1.80;99.90;;;;;;5113661;28;20204;-86
2021/12/04 08:55:17;;;;;;;3.13;2.90;;;1.80;99.90;;;;;;5113290;28;20220;-86
2021/12/04 08:57:46;;;;;;;4.13;3.77;;;1.90;99.90;;;;;;5112611;28;20219;-86
2021/12/04 09:00:18;;;;;;;5.83;3.80;;;1.90;99.90;;;;;;5112761;28;20303;-86
2021/12/04 09:02:47;;;;;;;3.83;3.10;;;1.90;99.90;;;;;;5113277;28;20219;-86
2021/12/04 09:05:18;;;;;;;3.63;3.33;;;2.00;99.90;;;;;;5113047;28;20211;-86
2021/12/04 09:07:49;;;;;;;3.10;2.80;;;2.00;99.90;;;;;;5112968;28;20216;-86
2021/12/04 09:10:18;;;;;;;3.80;3.13;;;2.10;99.90;;;;;;5112432;28;20207;-86
2021/12/04 09:12:47;;;;;;;3.53;3.23;;;2.10;99.90;;;;;;5112271;28;20295;-86
2021/12/04 09:15:19;;;;;;;3.27;2.97;;;2.20;99.90;;;;;;5112771;28;20215;-86
2021/12/04 09:17:48;;;;;;;3.57;3.27;;;2.20;99.90;;;;;;5113181;28;20227;-86
2021/12/04 09:20:17;;;;;;;4.23;3.87;;;2.30;99.90;;;;;;5112356;28;20269;-86
2021/12/04 09:22:46;;;;;;;3.53;3.23;;;2.30;99.90;;;;;;5113093;28;20263;-86
2021/12/04 09:25:21;;;;;;;3.97;3.60;;;2.30;99.90;;;;;;5112786;28;20196;-85
2021/12/04 09:28:09;;;;;;;6.07;3.63;;;2.40;99.90;;;;;;5112680;28;20318;-86
2021/12/04 10:04:39;;;;;;;3.93;3.60;;;3.20;99.90;;;;;;5112463;28;20222;-87
2021/12/04 10:24:03;;;;;;;4.23;3.43;;;3.10;99.90;;;;;;5112598;28;20219;-86
2021/12/04 10:32:29;;;;;;;4.97;4.32;;;3.20;99.90;;;;;;5116041;28;20231;-87
2021/12/04 10:34:59;;;;;;;4.93;3.50;;;3.20;99.90;;;;;;5115977;28;20232;-87
2021/12/04 10:37:29;;;;;;;4.17;3.80;;;3.20;99.90;;;;;;5116435;28;20232;-87
2021/12/04 10:40:00;;;;;;;3.90;3.17;;;3.20;99.90;;;;;;5115703;28;20283;-87
2021/12/04 10:42:40;;;;;;;4.45;3.78;;;3.20;99.90;;;;;;5116130;28;20223;-87
2021/12/04 10:45:09;;;;;;;4.20;3.80;;;3.20;99.90;;;;;;5116020;28;20245;-87
2021/12/04 10:47:49;;;;;;;7.13;3.95;;;3.20;99.90;;;;;;5115955;28;20220;-87
2021/12/04 10:50:26;;;;;;;3.47;3.20;;;3.30;99.90;;;;;;5115124;28;20295;-87
2021/12/04 10:52:57;;;;;;;3.97;3.65;;;3.40;99.90;;;;;;5115889;28;20231;-87
2021/12/04 10:55:31;;;;;;;3.33;3.03;;;3.40;99.90;;;;;;5115442;28;20306;-87
2021/12/04 11:01:04;;;;;;;4.30;3.42;;;3.50;99.90;;;;;;5114986;28;20295;-87
2021/12/04 11:03:44;;;;;;;4.22;3.75;;;3.50;99.90;;;;;;5115610;28;20284;-87
2021/12/04 11:25:53;;;;;;;4.32;3.80;;;3.90;99.90;;;;;;5093974;28;20303;-86
2021/12/04 11:42:24;;;;;;;4.45;3.70;;;4.20;99.90;;;;;;5114839;28;20287;-86
2021/12/04 11:45:08;;;;;;;3.53;3.22;;;4.20;99.90;;;;;;5114873;28;20290;-86
2021/12/04 11:47:38;;;;;;;4.03;3.55;;;4.20;99.90;;;;;;5114855;28;20303;-86
2021/12/04 11:50:19;;;;;;;4.22;3.67;;;4.30;99.90;;;;;;5114282;28;20219;-86
2021/12/04 11:52:51;;;;;;;5.10;4.28;;;4.30;99.90;;;;;;5114402;28;20203;-86
2021/12/04 11:55:21;;;;;;;5.70;4.03;;;4.40;99.90;;;;;;5114474;28;20223;-86
2021/12/04 11:57:50;;;;;;;4.60;4.18;;;4.40;99.90;;;;;;5114748;28;20277;-86
2021/12/04 12:00:24;;;;;;;5.07;3.67;;;4.50;99.90;;;;;;5113978;28;20204;-87
2021/12/04 12:03:05;;;;;;;5.88;4.72;;;4.50;99.90;;;;;;5114184;28;20195;-86
2021/12/04 12:05:42;;;;;;;5.32;4.50;;;4.60;99.90;;;;;;5114579;28;20214;-86
2021/12/04 12:08:22;;;;;;;3.75;3.45;;;4.60;99.90;;;;;;5114364;28;20242;-87
2021/12/04 12:10:54;;;;;;;3.15;2.88;;;4.60;99.90;;;;;;5114199;28;20215;-87
2021/12/04 12:13:31;;;;;;;4.22;3.83;;;4.60;99.90;;;;;;5113403;28;20272;-86
2021/12/04 12:16:04;;;;;;;3.60;3.30;;;4.60;99.90;;;;;;5113681;28;20310;-87
2021/12/04 12:18:43;;;;;;;3.80;3.50;;;4.60;99.90;;;;;;5114233;28;20227;-86
2021/12/04 12:21:13;;;;;;;3.53;3.22;;;4.60;99.90;;;;;;5114074;28;20203;-86
2021/12/04 12:27:10;;;;;;;4.43;3.92;;;4.70;99.90;;;;;;5092979;28;20302;-86
2021/12/04 12:32:50;;;;;;;6.18;4.32;;;4.90;99.90;;;;;;5113208;28;20208;-86
2021/12/04 12:38:10;;;;;;;3.45;3.15;;;4.90;99.90;;;;;;5113531;28;20250;-86
2021/12/04 12:40:56;;;;;;;3.47;3.17;;;5.00;99.90;;;;;;5112925;28;20203;-86
2021/12/04 12:43:33;;;;;;;3.60;2.85;;;4.90;99.90;;;;;;5113575;28;20250;-87
2021/12/04 12:46:01;;;;;;;3.60;2.95;;;4.90;99.90;;;;;;5113158;28;20302;-87
2021/12/04 12:48:30;;;;;;;2.85;2.60;;;4.90;99.90;;;;;;5113226;28;20255;-87
2021/12/04 12:51:07;;;;;;;2.55;2.35;;;4.90;99.90;;;;;;5113293;28;20271;-87
2021/12/04 12:53:43;;;;;;;3.50;3.03;;;4.90;99.90;;;;;;5113086;28;20263;-87
2021/12/04 12:56:15;;;;;;;2.83;2.55;;;4.90;99.90;;;;;;5113284;28;20353;-87
2021/12/04 12:58:49;;;;;;;2.00;1.90;;;4.90;99.90;;;;;;5113023;28;20227;-87
2021/12/04 13:13:31;;;;;;;2.78;2.55;;;4.90;99.90;;;;;;5112827;28;20263;-86
2021/12/04 13:16:05;;;;;;;2.13;2.03;;;4.80;99.90;;;;;;5112653;28;20222;-87
2021/12/04 13:18:35;;;;;;;2.22;2.03;;;4.80;99.90;;;;;;5113182;28;20230;-87
2021/12/04 13:21:07;;;;;;;2.53;2.30;;;4.80;99.90;;;;;;5112841;28;20199;-87
2021/12/04 13:23:37;;;;;;;2.65;2.28;;;4.80;99.90;;;;;;5113232;28;20211;-88
2021/12/04 13:26:08;;;;;;;1.83;1.73;;;4.80;99.90;;;;;;5112800;28;20203;-87
2021/12/04 13:28:46;;;;;;;2.53;2.33;;;4.70;99.90;;;;;;5112844;28;20258;-88
2021/12/04 13:31:18;;;;;;;3.35;3.05;;;4.70;99.90;;;;;;5112985;28;20207;-88
2021/12/04 13:33:50;;;;;;;2.35;2.15;;;4.70;99.90;;;;;;5112408;28;20199;-88
2021/12/04 13:36:20;;;;;;;3.22;2.90;;;4.70;99.90;;;;;;5112755;28;20228;-88
2021/12/04 13:38:53;;;;;;;6.25;2.28;;;4.70;99.90;;;;;;5112468;28;20262;-88
2021/12/04 13:41:21;;;;;;;7.40;3.83;;;4.70;99.90;;;;;;5112937;28;20291;-88
2021/12/04 13:43:55;;;;;;;4.03;2.70;;;4.70;99.90;;;;;;5114864;28;20287;-89
2021/12/04 13:46:24;;;;;;;2.70;2.47;;;4.70;99.90;;;;;;5116634;28;20199;-88
2021/12/04 13:49:00;;;;;;;3.50;3.10;;;4.70;99.90;;;;;;5116202;28;20226;-87
2021/12/04 13:51:28;;;;;;;3.17;2.90;;;4.60;99.90;;;;;;5117185;28;20286;-88
2021/12/04 13:54:01;;;;;;;5.07;3.70;;;4.60;99.90;;;;;;5116901;28;20213;-88
2021/12/04 13:56:30;;;;;;;2.65;2.45;;;4.60;99.90;;;;;;5117009;28;20246;-87
2021/12/04 13:59:04;;;;;;;9.75;3.80;;;4.50;99.90;;;;;;5116093;28;20227;-87
2021/12/04 14:01:42;;;;;;;4.05;3.17;;;4.50;99.90;;;;;;5116697;28;20215;-87
2021/12/04 14:04:16;;;;;;;2.85;2.65;;;4.50;99.90;;;;;;5116417;28;20205;-87
2021/12/04 14:06:50;;;;;;;4.03;3.50;;;4.50;99.90;;;;;;5116632;28;20203;-88
2021/12/04 14:09:19;;;;;;;6.78;5.75;;;4.40;99.90;;;;;;5116271;28;20210;-89
2021/12/04 14:11:54;;;;;;;3.65;3.35;;;4.40;99.90;;;;;;5115398;28;20215;-88
2021/12/04 14:14:27;;;;;;;4.45;3.60;;;4.40;99.90;;;;;;5116690;28;20265;-89
2021/12/04 14:17:02;;;;;;;6.43;3.35;;;4.30;99.90;;;;;;5116165;28;20223;-89
2021/12/04 14:19:31;;;;;;;5.53;4.35;;;4.30;99.90;;;;;;5115886;28;20282;-89
2021/12/04 14:22:02;;;;;;;3.63;3.33;;;4.30;99.90;;;;;;5116252;28;20290;-87
2021/12/04 14:24:33;;;;;;;3.08;2.88;;;4.30;99.90;;;;;;5116458;28;20223;-87
2021/12/04 14:27:04;;;;;;;4.03;3.58;;;4.30;99.90;;;;;;5116395;28;20227;-87
2021/12/04 14:29:36;;;;;;;4.63;4.20;;;4.30;99.90;;;;;;5115653;28;20200;-87
2021/12/04 14:32:06;;;;;;;3.95;3.53;;;4.20;99.90;;;;;;5115982;28;20238;-86
2021/12/04 14:34:35;;;;;;;4.10;3.63;;;4.10;99.90;;;;;;5116251;28;20199;-87
2021/12/04 14:37:07;;;;;;;5.90;3.50;;;4.10;99.90;;;;;;5115719;28;20223;-87
2021/12/04 14:39:35;;;;;;;3.22;2.85;;;4.10;99.90;;;;;;5115716;28;20279;-87
2021/12/04 14:42:11;;;;;;;4.47;3.85;;;4.00;99.90;;;;;;5115608;28;20286;-87
2021/12/04 14:44:42;;;;;;;5.18;3.63;;;4.00;99.90;;;;;;5115944;28;20203;-87
2021/12/04 14:47:11;;;;;;;3.70;3.38;;;4.00;99.90;;;;;;5116021;28;20304;-87
2021/12/04 14:49:42;;;;;;;4.70;3.63;;;3.80;99.90;;;;;;5115239;28;20311;-87
2021/12/04 14:52:18;;;;;;;3.58;3.05;;;3.80;99.90;;;;;;5115749;28;20239;-87
2021/12/04 14:54:47;;;;;;;13.48;3.88;;;3.80;99.90;;;;;;5114881;28;20223;-87
2021/12/04 14:57:18;;;;;;;3.70;3.40;;;3.80;99.90;;;;;;5115544;28;20220;-87
2021/12/04 14:59:59;;;;;;;4.45;3.35;;;3.80;99.90;;;;;;5115605;28;20280;-87
2021/12/04 15:02:27;;;;;;;3.83;3.13;;;3.80;99.90;;;;;;5115502;28;20291;-87
2021/12/04 15:04:57;;;;;;;9.38;3.88;;;3.70;99.90;;;;;;5115488;28;20271;-87
2021/12/04 15:07:28;;;;;;;5.32;3.72;;;3.70;99.90;;;;;;5115245;28;20259;-87
2021/12/04 15:09:56;;;;;;;3.38;3.08;;;3.70;99.90;;;;;;5114972;28;20251;-87
2021/12/04 15:12:28;;;;;;;3.05;2.75;;;3.70;99.90;;;;;;5114516;28;20298;-87
2021/12/04 15:15:01;;;;;;;5.15;3.58;;;3.70;99.90;;;;;;5114931;28;20203;-87
2021/12/04 15:17:30;;;;;;;5.45;3.45;;;3.70;99.90;;;;;;5114815;28;20231;-87
2021/12/04 15:20:02;;;;;;;4.13;3.60;;;3.70;99.90;;;;;;5114768;28;20213;-87
2021/12/04 15:22:34;;;;;;;4.32;3.50;;;3.70;99.90;;;;;;5114865;28;20266;-87
2021/12/04 15:25:06;;;;;;;5.07;3.90;;;3.70;99.90;;;;;;5115590;28;20260;-87
2021/12/04 15:27:34;;;;;;;4.65;4.25;;;3.70;99.90;;;;;;5115000;28;20227;-87
2021/12/04 15:30:07;;;;;;;3.55;3.25;;;3.70;99.90;;;;;;5114475;28;20306;-87
2021/12/04 15:32:39;;;;;;;3.97;3.45;;;3.60;99.90;;;;;;5114893;28;20210;-87
2021/12/04 15:35:19;;;;;;;5.05;3.67;;;3.60;99.90;;;;;;5115228;28;20283;-87
2021/12/04 15:37:51;;;;;;;11.55;4.65;;;3.60;99.90;;;;;;5114695;28;20303;-87
2021/12/04 15:40:28;;;;;;;4.18;3.80;;;3.60;99.90;;;;;;5114375;28;20203;-87
2021/12/04 15:43:05;;;;;;;6.10;4.35;;;3.50;99.90;;;;;;5115297;28;20203;-87
2021/12/04 15:45:43;;;;;;;3.88;3.47;;;3.50;99.90;;;;;;5114765;28;20199;-86
2021/12/04 15:51:18;;;;;;;4.13;3.05;;;3.40;99.90;;;;;;5114014;28;20255;-87
2021/12/04 15:53:54;;;;;;;5.07;4.00;;;3.40;99.90;;;;;;5114674;28;20227;-87
2021/12/04 15:56:31;;;;;;;5.60;4.03;;;3.30;99.90;;;;;;5114948;28;20204;-87
2021/12/04 15:59:00;;;;;;;5.00;3.60;;;3.40;99.90;;;;;;5113540;28;20219;-87
2021/12/04 16:01:30;;;;;;;4.18;3.70;;;3.40;99.90;;;;;;5113928;28;20259;-87
2021/12/04 16:03:59;;;;;;;9.32;3.70;;;3.30;99.90;;;;;;5114384;28;20207;-87